createdAt,value
2022-12-22T00:01:32.454Z,94.60
2022-12-22T00:04:18.632Z,98.30
2022-12-22T00:07:05.006Z,91.70
2022-12-22T00:09:50.778Z,93.30
2022-12-22T00:12:38.433Z,94.20
2022-12-22T00:15:25.966Z,91.60
2022-12-22T00:18:13.293Z,90.00
2022-12-22T00:20:59.436Z,92.50
2022-12-22T00:23:45.592Z,91.50
2022-12-22T00:26:31.838Z,99.90
2022-12-22T00:29:17.847Z,99.90
2022-12-22T00:32:04.703Z,99.10
2022-12-22T00:34:58.641Z,98.70
2022-12-22T00:37:48.532Z,99.90
2022-12-22T00:40:36.245Z,98.40
2022-12-22T00:43:22.695Z,97.80
2022-12-22T00:46:10.075Z,97.60
2022-12-22T00:48:57.953Z,99.90
2022-12-22T00:51:45.960Z,89.30
2022-12-22T00:54:33.926Z,91.80
2022-12-22T00:57:21.140Z,95.30
2022-12-22T01:00:09.341Z,99.00
2022-12-22T01:02:55.346Z,97.90
2022-12-22T01:05:41.633Z,99.90
2022-12-22T01:08:30.641Z,99.90
2022-12-22T01:11:16.738Z,98.60
2022-12-22T01:14:02.635Z,99.90
2022-12-22T01:16:48.424Z,99.30
2022-12-22T01:19:34.671Z,94.30
2022-12-22T01:22:21.418Z,96.20
2022-12-22T01:25:08.857Z,99.60
2022-12-22T01:27:54.903Z,96.20
2022-12-22T01:30:41.230Z,94.60
2022-12-22T01:33:30.619Z,95.80
2022-12-22T01:36:17.066Z,99.90
2022-12-22T01:39:03.145Z,98.80
2022-12-22T01:41:50.470Z,97.00
2022-12-22T01:44:37.250Z,99.90
2022-12-22T01:47:53.873Z,99.90
2022-12-22T01:50:45.468Z,99.90
2022-12-22T01:53:35.965Z,99.90
2022-12-22T01:56:22.676Z,99.90
2022-12-22T01:59:13.435Z,99.90
2022-12-22T02:02:01.113Z,99.90
2022-12-22T02:04:51.214Z,99.90
2022-12-22T02:07:47.471Z,99.90
2022-12-22T02:10:52.203Z,99.90
2022-12-22T02:13:46.842Z,99.90
2022-12-22T02:17:03.635Z,99.90
2022-12-22T02:20:12.474Z,99.90
2022-12-22T02:23:08.728Z,99.90
2022-12-22T02:26:00.994Z,99.90
2022-12-22T02:28:51.273Z,99.90
2022-12-22T02:31:37.407Z,99.90
2022-12-22T02:34:23.580Z,99.90
2022-12-22T02:37:16.466Z,99.90
2022-12-22T02:40:12.333Z,99.90
2022-12-22T02:43:06.281Z,99.90
2022-12-22T02:46:02.734Z,99.90
2022-12-22T02:48:55.937Z,99.90
2022-12-22T02:51:45.803Z,99.90
2022-12-22T02:54:34.953Z,99.90
2022-12-22T02:57:22.227Z,99.90
2022-12-22T03:00:08.270Z,99.90
2022-12-22T03:02:56.121Z,99.90
2022-12-22T03:05:42.104Z,99.90
2022-12-22T03:08:28.050Z,99.90
2022-12-22T03:11:14.131Z,99.90
2022-12-22T03:14:00.381Z,99.90
2022-12-22T03:16:46.536Z,99.90
2022-12-22T03:19:33.667Z,99.90
2022-12-22T03:22:20.036Z,99.90
2022-12-22T03:25:05.747Z,99.90
2022-12-22T03:27:34.706Z,99.90
2022-12-22T03:30:03.642Z,99.90
2022-12-22T03:32:32.428Z,99.90
2022-12-22T03:35:02.484Z,99.90
2022-12-22T03:37:32.009Z,99.90
2022-12-22T03:40:00.737Z,99.90
2022-12-22T03:42:48.382Z,99.90
2022-12-22T03:45:34.629Z,99.90
2022-12-22T03:48:03.255Z,99.90
2022-12-22T03:50:33.347Z,99.90
2022-12-22T03:53:02.114Z,99.90
2022-12-22T03:55:30.794Z,99.90
2022-12-22T03:57:59.564Z,99.90
2022-12-22T04:00:28.184Z,99.90
2022-12-22T04:02:59.430Z,99.90
2022-12-22T04:05:28.219Z,99.90
2022-12-22T04:07:58.187Z,99.90
2022-12-22T04:10:44.477Z,99.90
2022-12-22T04:13:13.227Z,99.90
2022-12-22T04:15:41.909Z,99.90
2022-12-22T04:18:10.665Z,99.90
2022-12-22T04:20:39.386Z,99.90
2022-12-22T04:23:09.494Z,99.90
2022-12-22T04:25:38.232Z,99.90
2022-12-22T04:28:06.975Z,99.90
2022-12-22T04:30:35.654Z,99.90
2022-12-22T04:33:04.440Z,99.90
2022-12-22T04:35:33.075Z,99.90
2022-12-22T04:38:03.114Z,99.90
2022-12-22T04:40:33.213Z,99.90
2022-12-22T04:43:01.901Z,99.90
2022-12-22T04:45:30.612Z,99.90
2022-12-22T04:47:59.319Z,99.90
2022-12-22T04:50:28.382Z,99.90
2022-12-22T04:52:56.990Z,99.90
2022-12-22T04:55:25.612Z,99.90
2022-12-22T04:57:55.661Z,99.90
2022-12-22T05:00:24.492Z,99.90
2022-12-22T05:02:54.385Z,99.90
2022-12-22T05:05:23.262Z,99.90
2022-12-22T05:07:51.911Z,99.90
2022-12-22T05:10:20.592Z,99.90
2022-12-22T05:12:58.194Z,99.90
2022-12-22T05:15:30.059Z,99.90
2022-12-22T05:18:00.199Z,99.90
2022-12-22T05:20:29.928Z,99.90
2022-12-22T05:22:59.293Z,99.90
2022-12-22T05:25:34.469Z,99.90
2022-12-22T05:28:04.029Z,99.90
2022-12-22T05:30:34.372Z,99.90
2022-12-22T05:33:03.097Z,99.90
2022-12-22T05:35:31.766Z,99.90
2022-12-22T05:38:00.431Z,99.90
2022-12-22T05:40:29.205Z,99.90
2022-12-22T05:42:57.874Z,99.90
2022-12-22T05:45:26.575Z,99.90
2022-12-22T05:47:56.647Z,99.90
2022-12-22T05:50:26.866Z,99.90
2022-12-22T05:53:15.856Z,99.90
2022-12-22T05:55:44.554Z,99.90
2022-12-22T05:58:13.260Z,99.90
2022-12-22T06:00:41.987Z,99.90
2022-12-22T06:03:12.182Z,99.90
2022-12-22T06:05:41.339Z,99.90
2022-12-22T06:08:10.198Z,99.90
2022-12-22T06:10:38.846Z,99.90
2022-12-22T06:13:07.529Z,99.90
2022-12-22T06:15:36.280Z,99.90
2022-12-22T06:18:07.648Z,99.90
2022-12-22T06:20:37.766Z,99.90
2022-12-22T06:23:06.565Z,99.90
2022-12-22T06:25:35.316Z,99.90
2022-12-22T06:28:04.034Z,99.90
2022-12-22T06:30:34.087Z,99.90
2022-12-22T06:33:03.877Z,99.90
2022-12-22T06:35:32.696Z,99.90
2022-12-22T06:38:03.313Z,99.90
2022-12-22T06:40:31.946Z,99.90
2022-12-22T06:43:11.354Z,99.90
2022-12-22T06:45:42.341Z,99.90
2022-12-22T06:48:12.478Z,99.90
2022-12-22T06:50:41.252Z,99.90
2022-12-22T06:53:11.874Z,99.90
2022-12-22T06:55:40.586Z,99.90
2022-12-22T06:58:09.294Z,99.90
2022-12-22T07:00:38.094Z,99.90
2022-12-22T07:03:07.033Z,99.90
2022-12-22T07:05:35.897Z,99.90
2022-12-22T07:08:08.898Z,99.60
2022-12-22T07:10:57.567Z,99.90
2022-12-22T07:13:27.969Z,99.90
2022-12-22T07:16:01.116Z,99.90
2022-12-22T07:18:31.447Z,99.90
2022-12-22T07:21:01.500Z,99.90
2022-12-22T07:23:30.840Z,99.90
2022-12-22T07:26:01.382Z,99.90
2022-12-22T07:28:30.061Z,99.90
2022-12-22T07:30:58.768Z,99.90
2022-12-22T07:33:27.603Z,99.90
2022-12-22T07:36:04.892Z,99.90
2022-12-22T07:38:35.833Z,93.30
2022-12-22T07:41:27.122Z,99.90
2022-12-22T07:43:55.780Z,98.00
2022-12-22T07:46:25.925Z,96.30
2022-12-22T07:49:12.628Z,95.30
2022-12-22T07:51:42.995Z,95.90
2022-12-22T07:54:13.258Z,99.90
2022-12-22T07:56:44.389Z,99.90
2022-12-22T07:59:13.864Z,99.90
2022-12-22T08:01:43.166Z,99.90
2022-12-22T08:04:12.443Z,83.20
2022-12-22T08:06:41.278Z,74.00
2022-12-22T08:09:10.556Z,67.80
2022-12-22T08:11:39.181Z,50.00
2022-12-22T08:14:09.983Z,35.60
2022-12-22T08:16:38.850Z,38.50
2022-12-22T08:19:07.458Z,36.40
2022-12-22T08:21:36.140Z,32.80
2022-12-22T08:24:04.958Z,30.70
2022-12-22T08:26:38.124Z,24.80
2022-12-22T08:29:13.991Z,23.00
2022-12-22T08:31:43.953Z,21.90
2022-12-22T08:34:16.294Z,20.90
2022-12-22T08:36:48.907Z,24.90
2022-12-22T08:39:20.013Z,16.60
2022-12-22T08:41:51.993Z,20.30
2022-12-22T08:44:24.317Z,7.20
2022-12-22T08:46:53.942Z,9.90
2022-12-22T08:49:23.375Z,7.60
2022-12-22T08:51:52.769Z,3.70
2022-12-22T08:54:22.524Z,6.10
2022-12-22T08:56:51.448Z,1.00
2022-12-22T08:59:21.836Z,16.00
2022-12-22T09:01:53.242Z,6.00
2022-12-22T09:04:24.514Z,12.90
2022-12-22T09:06:54.539Z,7.10
2022-12-22T09:09:23.333Z,15.30
2022-12-22T09:11:52.377Z,6.30
2022-12-22T09:14:22.537Z,4.10
2022-12-22T09:16:52.192Z,10.40
2022-12-22T09:19:25.486Z,1.00
2022-12-22T09:21:54.236Z,5.40
2022-12-22T09:24:23.452Z,5.20
2022-12-22T09:26:52.236Z,1.00
2022-12-22T09:29:23.026Z,1.00
2022-12-22T09:31:51.839Z,1.00
2022-12-22T09:34:20.547Z,1.00
2022-12-22T09:36:49.321Z,2.90
2022-12-22T09:39:25.024Z,1.80
2022-12-22T09:41:59.305Z,1.00
2022-12-22T09:44:34.546Z,1.00
2022-12-22T09:47:07.011Z,3.60
2022-12-22T09:49:35.746Z,1.00
2022-12-22T09:52:05.999Z,3.80
2022-12-22T09:54:34.795Z,7.20
2022-12-22T09:57:03.635Z,1.00
2022-12-22T09:59:34.728Z,1.60
2022-12-22T10:02:14.540Z,3.90
2022-12-22T10:04:57.819Z,3.90
2022-12-22T10:07:32.395Z,7.00
2022-12-22T10:10:09.704Z,1.00
2022-12-22T10:12:38.516Z,6.20
2022-12-22T10:15:16.995Z,1.00
2022-12-22T10:17:51.920Z,9.10
2022-12-22T10:20:26.609Z,1.00
2022-12-22T10:22:58.871Z,1.80
2022-12-22T10:28:25.508Z,1.00
2022-12-22T10:31:12.331Z,1.00
2022-12-22T10:33:46.717Z,1.00
2022-12-22T10:36:20.931Z,1.00
2022-12-22T10:39:03.072Z,1.00
2022-12-22T10:41:36.072Z,1.00
2022-12-22T10:44:09.475Z,1.00
2022-12-22T10:46:43.564Z,1.00
2022-12-22T10:49:20.353Z,1.00
2022-12-22T10:51:51.899Z,1.00
2022-12-22T10:54:32.648Z,1.00
2022-12-22T10:57:07.388Z,1.00
2022-12-22T10:59:49.955Z,1.00
2022-12-22T11:02:33.457Z,1.00
2022-12-22T11:05:08.419Z,1.00
2022-12-22T11:07:39.411Z,1.00
2022-12-22T11:10:20.088Z,1.00
2022-12-22T11:13:09.422Z,1.00
2022-12-22T11:15:46.743Z,1.00
2022-12-22T11:18:31.371Z,1.00
2022-12-22T11:21:04.277Z,1.00
2022-12-22T11:23:40.413Z,1.00
2022-12-22T11:26:17.412Z,1.00
2022-12-22T11:29:02.046Z,1.00
2022-12-22T11:31:53.224Z,1.00
2022-12-22T11:34:42.221Z,1.00
2022-12-22T11:37:22.695Z,1.00
2022-12-22T11:39:59.434Z,1.00
2022-12-22T11:42:48.280Z,7.30
2022-12-22T11:45:37.608Z,1.00
2022-12-22T11:48:28.550Z,4.00
2022-12-22T11:51:10.008Z,4.10
2022-12-22T11:54:04.104Z,2.00
2022-12-22T11:56:40.024Z,1.00
2022-12-22T11:59:25.003Z,15.10
2022-12-22T12:02:26.353Z,4.40
2022-12-22T12:05:19.903Z,12.00
2022-12-22T12:07:55.615Z,12.30
2022-12-22T12:10:28.152Z,21.10
2022-12-22T12:13:05.592Z,23.80
2022-12-22T12:15:38.756Z,20.80
2022-12-22T12:18:31.479Z,27.70
2022-12-22T12:21:11.983Z,26.70
2022-12-22T12:23:58.861Z,26.70
2022-12-22T12:26:32.629Z,23.70
2022-12-22T12:29:14.933Z,27.20
2022-12-22T12:31:48.332Z,26.20
2022-12-22T12:34:20.154Z,31.90
2022-12-22T12:36:54.126Z,40.50
2022-12-22T12:39:34.848Z,26.80
2022-12-22T12:42:18.327Z,36.50
2022-12-22T12:44:48.218Z,37.70
2022-12-22T12:47:26.637Z,49.40
2022-12-22T12:50:03.922Z,36.00
2022-12-22T12:53:05.518Z,44.00
2022-12-22T12:55:53.928Z,46.60
2022-12-22T12:58:58.361Z,29.60
2022-12-22T13:01:55.185Z,37.30
2022-12-22T13:05:14.935Z,32.80
2022-12-22T13:08:05.898Z,38.80
2022-12-22T13:10:43.276Z,41.70
2022-12-22T13:13:14.909Z,35.00
2022-12-22T13:15:45.303Z,37.60
2022-12-22T13:18:49.364Z,29.50
2022-12-22T13:24:25.312Z,21.50
2022-12-22T13:27:01.921Z,26.80
2022-12-22T13:29:42.907Z,24.90
2022-12-22T13:32:23.232Z,29.90
2022-12-22T13:37:50.794Z,22.50
2022-12-22T13:40:21.834Z,24.70
2022-12-22T13:42:54.318Z,28.80
2022-12-22T13:45:39.274Z,24.60
2022-12-22T13:48:14.115Z,24.80
2022-12-22T13:50:46.358Z,27.70
2022-12-22T13:53:49.962Z,21.10
2022-12-22T13:56:15.335Z,17.30
2022-12-22T13:58:48.077Z,24.00
2022-12-22T14:01:20.563Z,26.70
2022-12-22T14:04:01.382Z,24.20
2022-12-22T14:06:33.146Z,27.40
2022-12-22T14:09:17.260Z,23.50
2022-12-22T14:11:52.539Z,19.00
2022-12-22T14:14:27.961Z,16.30
2022-12-22T14:16:58.761Z,16.70
2022-12-22T14:19:32.150Z,16.20
2022-12-22T14:22:05.760Z,19.40
2022-12-22T14:24:43.235Z,11.70
2022-12-22T14:27:21.455Z,14.40
2022-12-22T14:29:52.411Z,21.20
2022-12-22T14:32:39.920Z,19.70
2022-12-22T14:35:25.970Z,17.50
2022-12-22T14:37:57.169Z,22.40
2022-12-22T14:40:35.704Z,18.80
2022-12-22T14:43:07.027Z,17.70
2022-12-22T14:45:37.184Z,18.60
2022-12-22T14:48:10.474Z,20.90
2022-12-22T14:50:40.587Z,23.80
2022-12-22T14:53:17.027Z,19.80
2022-12-22T14:55:51.355Z,19.70
2022-12-22T14:58:23.405Z,24.80
2022-12-22T15:01:14.597Z,29.70
2022-12-22T15:03:44.023Z,24.80
2022-12-22T15:06:36.295Z,30.20
2022-12-22T15:10:03.573Z,24.10
2022-12-22T15:12:18.161Z,20.40
2022-12-22T15:14:49.192Z,27.40
2022-12-22T15:17:23.877Z,28.60
2022-12-22T15:19:53.325Z,39.80
2022-12-22T15:22:22.020Z,36.70
2022-12-22T15:24:50.726Z,31.60
2022-12-22T15:27:19.424Z,25.60
2022-12-22T15:29:51.806Z,24.70
2022-12-22T15:32:22.132Z,27.80
2022-12-22T15:34:50.822Z,28.00
2022-12-22T15:37:19.634Z,29.60
2022-12-22T15:39:48.722Z,29.00
2022-12-22T15:42:17.441Z,28.00
2022-12-22T15:44:46.120Z,27.60
2022-12-22T15:47:14.989Z,31.40
2022-12-22T15:49:46.194Z,31.70
2022-12-22T15:52:15.000Z,29.20
2022-12-22T15:54:44.286Z,26.00
2022-12-22T15:57:14.509Z,36.00
2022-12-22T15:59:43.235Z,29.20
2022-12-22T16:02:13.518Z,29.70
2022-12-22T16:04:42.532Z,25.90
2022-12-22T16:07:13.528Z,31.50
2022-12-22T16:09:44.224Z,27.60
2022-12-22T16:12:19.716Z,24.10
2022-12-22T16:14:51.173Z,27.90
2022-12-22T16:17:21.263Z,19.20
2022-12-22T16:19:50.058Z,20.90
2022-12-22T16:22:21.902Z,22.70
2022-12-22T16:24:52.267Z,18.00
2022-12-22T16:27:21.016Z,17.40
2022-12-22T16:29:54.153Z,26.10
2022-12-22T16:32:27.584Z,21.80
2022-12-22T16:35:02.370Z,20.20
2022-12-22T16:37:33.443Z,25.40
2022-12-22T16:40:02.280Z,24.20
2022-12-22T16:45:22.722Z,16.20
2022-12-22T16:47:53.386Z,17.20
2022-12-22T16:50:27.635Z,13.30
2022-12-22T16:52:57.645Z,16.60
2022-12-22T16:55:26.335Z,14.40
2022-12-22T16:57:55.064Z,8.50
2022-12-22T17:00:25.479Z,16.40
2022-12-22T17:02:57.207Z,12.80
2022-12-22T17:05:30.194Z,7.60
2022-12-22T17:08:02.795Z,14.00
2022-12-22T17:10:31.531Z,12.00
2022-12-22T17:13:00.948Z,14.90
2022-12-22T17:15:29.843Z,7.00
2022-12-22T17:17:58.701Z,4.70
2022-12-22T17:20:29.541Z,5.90
2022-12-22T17:23:01.961Z,8.50
2022-12-22T17:25:32.513Z,10.50
2022-12-22T17:28:03.462Z,9.10
2022-12-22T17:30:32.333Z,13.60
2022-12-22T17:33:01.061Z,9.20
2022-12-22T17:35:33.363Z,6.70
2022-12-22T17:38:03.475Z,7.70
2022-12-22T17:40:32.213Z,9.30
2022-12-22T17:43:01.062Z,1.00
2022-12-22T17:45:29.853Z,2.00
2022-12-22T17:47:59.127Z,1.00
2022-12-22T17:50:28.106Z,9.40
2022-12-22T17:52:57.443Z,20.20
2022-12-22T17:56:06.068Z,10.80
2022-12-22T17:58:19.033Z,9.10
2022-12-22T18:00:47.802Z,13.30
2022-12-22T18:03:16.902Z,17.50
2022-12-22T18:05:48.736Z,13.60
2022-12-22T18:08:21.454Z,14.20
2022-12-22T18:10:51.696Z,13.40
2022-12-22T18:13:25.242Z,20.20
2022-12-22T18:15:55.998Z,12.00
2022-12-22T18:18:24.945Z,6.40
2022-12-22T18:21:06.437Z,17.60
2022-12-22T18:23:38.340Z,18.60
2022-12-22T18:26:10.055Z,10.80
2022-12-22T18:28:39.054Z,9.30
2022-12-22T18:31:09.022Z,15.40
2022-12-22T18:33:37.873Z,15.50
2022-12-22T18:36:07.244Z,21.40
2022-12-22T18:38:36.524Z,18.10
2022-12-22T18:41:05.524Z,12.40
2022-12-22T18:43:35.700Z,10.30
2022-12-22T18:46:04.375Z,11.10
2022-12-22T18:48:33.287Z,4.60
2022-12-22T18:51:02.008Z,11.10
2022-12-22T18:53:32.692Z,9.00
2022-12-22T18:56:01.487Z,15.50
2022-12-22T18:58:30.275Z,11.20
2022-12-22T19:01:00.721Z,11.30
2022-12-22T19:03:31.334Z,7.50
2022-12-22T19:06:00.371Z,11.60
2022-12-22T19:08:31.545Z,1.10
2022-12-22T19:11:04.395Z,6.80
2022-12-22T19:13:36.635Z,6.40
2022-12-22T19:16:08.130Z,5.60
2022-12-22T19:18:36.850Z,9.60
2022-12-22T19:21:05.817Z,14.10
2022-12-22T19:23:34.629Z,8.20
2022-12-22T19:26:08.869Z,4.60
2022-12-22T19:28:40.253Z,8.10
2022-12-22T19:31:17.581Z,4.40
2022-12-22T19:33:46.693Z,16.60
2022-12-22T19:36:18.207Z,1.00
2022-12-22T19:38:50.764Z,2.40
2022-12-22T19:41:39.870Z,1.00
2022-12-22T19:44:19.414Z,6.20
2022-12-22T19:46:50.228Z,1.00
2022-12-22T19:49:20.817Z,4.80
2022-12-22T19:51:49.942Z,2.90
2022-12-22T19:54:19.578Z,1.00
2022-12-22T19:56:51.915Z,3.90
2022-12-22T19:59:29.518Z,5.10
2022-12-22T20:02:02.011Z,9.30
2022-12-22T20:04:30.775Z,10.90
2022-12-22T20:06:59.732Z,12.30
2022-12-22T20:09:30.832Z,10.90
2022-12-22T20:11:59.526Z,7.40
2022-12-22T20:14:28.287Z,8.20
2022-12-22T20:16:56.971Z,10.20
2022-12-22T20:19:27.100Z,1.00
2022-12-22T20:21:55.818Z,7.40
2022-12-22T20:24:25.828Z,1.00
2022-12-22T20:26:55.052Z,11.00
2022-12-22T20:29:25.438Z,3.50
2022-12-22T20:31:54.343Z,10.60
2022-12-22T20:34:23.273Z,1.00
2022-12-22T20:36:53.370Z,12.30
2022-12-22T20:39:22.051Z,7.60
2022-12-22T20:41:53.648Z,10.90
2022-12-22T20:44:23.757Z,6.80
2022-12-22T20:46:52.439Z,6.20
2022-12-22T20:49:21.320Z,11.00
2022-12-22T20:51:50.137Z,13.30
2022-12-22T20:54:20.260Z,19.20
2022-12-22T20:56:49.092Z,10.70
2022-12-22T20:59:21.006Z,18.10
2022-12-22T21:01:51.009Z,18.90
2022-12-22T21:04:20.237Z,12.70
2022-12-22T21:06:53.892Z,11.80
2022-12-22T21:09:28.223Z,17.90
2022-12-22T21:11:57.039Z,26.30
2022-12-22T21:14:25.705Z,22.70
2022-12-22T21:16:55.300Z,22.40
2022-12-22T21:19:24.057Z,21.00
2022-12-22T21:21:52.865Z,34.80
2022-12-22T21:24:21.618Z,35.50
2022-12-22T21:26:54.167Z,36.90
2022-12-22T21:29:26.300Z,48.50
2022-12-22T21:31:55.559Z,39.60
2022-12-22T21:34:24.588Z,38.50
2022-12-22T21:37:00.740Z,49.60
2022-12-22T21:39:33.711Z,45.10
2022-12-22T21:42:05.276Z,54.00
2022-12-22T21:44:35.580Z,61.10
2022-12-22T21:47:04.928Z,63.60
2022-12-22T21:49:34.598Z,70.30
2022-12-22T21:52:03.449Z,74.30
2022-12-22T21:54:32.174Z,86.50
2022-12-22T21:57:00.935Z,96.40
2022-12-22T21:59:31.003Z,99.90
2022-12-22T22:01:59.778Z,99.90
2022-12-22T22:04:28.553Z,99.90
2022-12-22T22:06:58.034Z,99.90
2022-12-22T22:09:26.726Z,99.90
2022-12-22T22:12:13.089Z,99.90
2022-12-22T22:14:43.136Z,99.90
2022-12-22T22:17:12.595Z,99.90
2022-12-22T22:19:41.197Z,99.90
2022-12-22T22:22:09.804Z,99.90
2022-12-22T22:24:38.455Z,99.90
2022-12-22T22:27:07.226Z,99.90
2022-12-22T22:29:36.167Z,99.90
2022-12-22T22:32:06.873Z,99.90
2022-12-22T22:34:35.626Z,99.90
2022-12-22T22:37:04.321Z,99.90
2022-12-22T22:39:33.048Z,99.90
2022-12-22T22:42:01.700Z,99.90
2022-12-22T22:44:30.460Z,99.90
2022-12-22T22:46:59.247Z,99.90
2022-12-22T22:49:29.513Z,99.90
2022-12-22T22:51:58.450Z,99.90
2022-12-22T22:54:27.240Z,99.90
2022-12-22T22:56:55.979Z,99.90
2022-12-22T22:59:24.745Z,99.90
2022-12-22T23:01:53.541Z,99.90
2022-12-22T23:04:22.408Z,99.90
2022-12-22T23:06:52.544Z,99.90
2022-12-22T23:09:21.194Z,99.90
2022-12-22T23:11:52.244Z,99.90
2022-12-22T23:14:21.673Z,99.90
2022-12-22T23:16:50.517Z,99.90
2022-12-22T23:19:19.659Z,99.90
2022-12-22T23:21:48.433Z,99.90
2022-12-22T23:24:19.072Z,99.90
2022-12-22T23:26:47.791Z,99.90
2022-12-22T23:29:16.634Z,99.90
2022-12-22T23:31:45.384Z,99.90
2022-12-22T23:34:14.685Z,99.90
2022-12-22T23:36:43.352Z,99.90
2022-12-22T23:39:12.097Z,99.90
2022-12-22T23:41:42.201Z,99.90
2022-12-22T23:44:11.675Z,99.90
2022-12-22T23:46:41.508Z,99.90
2022-12-22T23:49:13.085Z,99.90
2022-12-22T23:51:41.951Z,99.90
2022-12-22T23:54:10.564Z,99.90
2022-12-22T23:56:39.307Z,99.90
2022-12-22T23:59:09.310Z,99.90
